createdAt,value
2022-12-12T00:02:57.824Z,-2.10
2022-12-12T00:07:02.161Z,-2.20
2022-12-12T00:11:05.288Z,-2.20
2022-12-12T00:15:09.004Z,-2.30
2022-12-12T00:19:11.946Z,-2.30
2022-12-12T00:23:16.178Z,-2.40
2022-12-12T00:27:19.083Z,-2.50
2022-12-12T00:31:22.445Z,-2.50
2022-12-12T00:35:25.694Z,-2.60
2022-12-12T00:39:29.919Z,-2.60
2022-12-12T00:43:32.773Z,-2.60
2022-12-12T00:47:35.626Z,-2.70
2022-12-12T00:51:38.458Z,-2.70
2022-12-12T00:55:42.676Z,-2.70
2022-12-12T00:59:45.530Z,-2.80
2022-12-12T01:03:48.682Z,-2.80
2022-12-12T01:07:51.591Z,-2.90
2022-12-12T01:11:55.863Z,-2.90
2022-12-12T01:15:58.818Z,-3.00
2022-12-12T01:20:02.618Z,-3.00
2022-12-12T01:24:05.747Z,-3.10
2022-12-12T01:28:10.045Z,-3.20
2022-12-12T01:32:12.986Z,-3.20
2022-12-12T01:36:17.515Z,-3.20
2022-12-12T01:40:21.394Z,-3.30
2022-12-12T01:44:41.887Z,-3.30
2022-12-12T01:48:48.145Z,-3.30
2022-12-12T01:52:51.050Z,-3.40
2022-12-12T01:56:54.527Z,-3.30
2022-12-12T02:00:57.696Z,-3.40
2022-12-12T02:05:04.224Z,-3.40
2022-12-12T02:09:09.027Z,-3.40
2022-12-12T02:13:15.895Z,-3.40
2022-12-12T02:17:35.948Z,-3.40
2022-12-12T02:21:44.010Z,-3.40
2022-12-12T02:25:56.522Z,-3.40
2022-12-12T02:30:14.229Z,-3.50
2022-12-12T02:34:21.994Z,-3.50
2022-12-12T02:38:28.925Z,-3.60
2022-12-12T02:42:37.829Z,-3.60
2022-12-12T02:46:44.852Z,-3.60
2022-12-12T02:50:50.931Z,-3.60
2022-12-12T02:54:54.857Z,-3.60
2022-12-12T02:58:58.367Z,-3.70
2022-12-12T03:03:27.898Z,-3.70
2022-12-12T03:07:50.771Z,-3.70
2022-12-12T03:12:02.515Z,-3.70
2022-12-12T03:16:13.993Z,-3.70
2022-12-12T03:20:21.001Z,-3.80
2022-12-12T03:24:30.481Z,-3.80
2022-12-12T03:28:35.932Z,-3.80
2022-12-12T03:32:41.185Z,-3.80
2022-12-12T03:36:46.684Z,-3.80
2022-12-12T03:40:52.576Z,-3.80
2022-12-12T03:44:59.064Z,-3.80
2022-12-12T03:49:03.651Z,-3.90
2022-12-12T03:53:10.824Z,-3.90
2022-12-12T03:57:18.192Z,-3.90
2022-12-12T04:01:23.381Z,-3.90
2022-12-12T04:05:28.468Z,-3.90
2022-12-12T04:09:49.494Z,-3.90
2022-12-12T04:14:01.829Z,-3.90
2022-12-12T04:18:09.821Z,-3.90
2022-12-12T04:22:39.012Z,-3.90
2022-12-12T04:26:43.301Z,-4.00
2022-12-12T04:30:47.606Z,-4.00
2022-12-12T04:34:52.932Z,-4.00
2022-12-12T04:38:56.868Z,-4.00
2022-12-12T04:43:01.923Z,-4.10
2022-12-12T04:47:06.505Z,-4.10
2022-12-12T04:51:11.218Z,-4.10
2022-12-12T04:55:15.991Z,-4.20
2022-12-12T04:59:19.509Z,-4.20
2022-12-12T05:03:30.074Z,-4.30
2022-12-12T05:07:39.694Z,-4.30
2022-12-12T05:11:43.312Z,-4.30
2022-12-12T05:15:46.769Z,-4.40
2022-12-12T05:19:51.047Z,-4.40
2022-12-12T05:23:53.935Z,-4.40
2022-12-12T05:27:56.855Z,-4.40
2022-12-12T05:31:59.799Z,-4.40
2022-12-12T05:36:04.057Z,-4.40
2022-12-12T05:40:08.502Z,-4.50
2022-12-12T05:44:11.446Z,-4.50
2022-12-12T05:48:16.453Z,-4.50
2022-12-12T05:52:23.951Z,-4.50
2022-12-12T05:56:27.077Z,-4.50
2022-12-12T06:00:29.957Z,-4.50
2022-12-12T06:04:33.412Z,-4.50
2022-12-12T06:08:37.696Z,-4.50
2022-12-12T06:12:40.710Z,-4.50
2022-12-12T06:16:43.590Z,-4.60
2022-12-12T06:41:07.973Z,-4.80
2022-12-12T06:45:11.632Z,-4.70
2022-12-12T06:49:14.679Z,-4.70
2022-12-12T06:53:17.523Z,-4.80
2022-12-12T06:57:21.841Z,-4.80
2022-12-12T07:01:24.943Z,-4.80
2022-12-12T07:05:28.342Z,-4.80
2022-12-12T07:09:31.488Z,-4.80
2022-12-12T07:13:36.442Z,-4.80
2022-12-12T07:17:39.345Z,-4.80
2022-12-12T07:21:42.225Z,-4.80
2022-12-12T07:25:46.822Z,-4.80
2022-12-12T07:29:51.049Z,-4.80
2022-12-12T07:33:54.382Z,-4.80
2022-12-12T07:37:57.620Z,-4.80
2022-12-12T07:42:00.542Z,-4.80
2022-12-12T07:46:07.204Z,-4.80
2022-12-12T07:50:10.371Z,-4.80
2022-12-12T07:54:13.230Z,-4.70
2022-12-12T07:58:16.062Z,-4.70
2022-12-12T08:02:20.337Z,-4.60
2022-12-12T08:06:24.271Z,-4.60
2022-12-12T08:10:27.317Z,-4.50
2022-12-12T08:14:30.272Z,-4.50
2022-12-12T08:18:34.553Z,-4.40
2022-12-12T08:22:42.409Z,-4.40
2022-12-12T08:26:46.076Z,-4.40
2022-12-12T08:30:52.138Z,-4.30
2022-12-12T08:34:58.527Z,-4.20
2022-12-12T08:39:03.635Z,-4.20
2022-12-12T08:43:06.709Z,-4.10
2022-12-12T08:47:10.625Z,-4.00
2022-12-12T08:51:15.234Z,-3.80
2022-12-12T08:55:18.210Z,-3.70
2022-12-12T08:59:22.035Z,-3.20
2022-12-12T09:03:29.441Z,-2.60
2022-12-12T09:07:34.266Z,-2.50
2022-12-12T09:11:37.129Z,-1.70
2022-12-12T09:15:40.127Z,-1.00
2022-12-12T09:19:43.027Z,-0.20
2022-12-12T09:23:47.238Z,0.30
2022-12-12T09:27:50.093Z,0.90
2022-12-12T09:36:00.102Z,1.70
2022-12-12T09:44:09.107Z,2.00
2022-12-12T09:48:13.860Z,2.10
2022-12-12T09:52:17.561Z,2.30
2022-12-12T09:56:23.279Z,2.80
2022-12-12T10:00:28.642Z,3.60
2022-12-12T10:08:38.523Z,5.20
2022-12-12T10:20:51.160Z,7.40
2022-12-12T10:24:55.633Z,7.90
2022-12-12T10:33:07.857Z,8.50
2022-12-12T10:41:18.430Z,9.50
2022-12-12T10:45:31.912Z,10.30
2022-12-12T10:49:35.027Z,10.70
2022-12-12T10:53:37.920Z,11.80
2022-12-12T10:57:42.193Z,11.80
2022-12-12T11:06:12.490Z,12.70
2022-12-12T11:10:31.962Z,13.00
2022-12-12T11:14:38.812Z,13.50
2022-12-12T11:18:41.832Z,13.60
2022-12-12T11:22:44.948Z,13.50
2022-12-12T11:26:48.846Z,13.10
2022-12-12T11:30:55.476Z,12.60
2022-12-12T11:34:59.601Z,12.10
2022-12-12T11:39:03.595Z,11.50
2022-12-12T11:43:14.583Z,11.10
2022-12-12T11:47:23.233Z,11.10
2022-12-12T11:51:36.749Z,11.20
2022-12-12T11:55:45.562Z,11.60
2022-12-12T12:00:03.815Z,12.00
2022-12-12T12:04:18.914Z,12.40
2022-12-12T12:08:26.780Z,13.10
2022-12-12T12:12:38.057Z,13.10
2022-12-12T12:16:46.993Z,13.30
2022-12-12T12:21:03.094Z,13.50
2022-12-12T12:25:17.928Z,13.70
2022-12-12T12:33:28.875Z,14.00
2022-12-12T12:37:39.883Z,14.00
2022-12-12T12:41:50.573Z,13.80
2022-12-12T12:45:57.646Z,13.30
2022-12-12T12:50:03.661Z,12.50
2022-12-12T12:54:15.245Z,11.80
2022-12-12T12:58:20.534Z,11.00
2022-12-12T13:02:27.381Z,10.30
2022-12-12T13:06:37.353Z,9.60
2022-12-12T13:10:43.785Z,9.00
2022-12-12T13:14:49.797Z,8.50
2022-12-12T13:18:58.951Z,8.00
2022-12-12T13:23:14.128Z,7.60
2022-12-12T13:27:21.793Z,7.20
2022-12-12T13:31:34.816Z,6.90
2022-12-12T13:35:42.559Z,6.50
2022-12-12T13:39:45.674Z,6.20
2022-12-12T13:43:50.302Z,6.00
2022-12-12T13:48:00.363Z,5.70
2022-12-12T13:52:24.437Z,5.50
2022-12-12T13:56:35.026Z,5.30
2022-12-12T14:00:39.978Z,5.10
2022-12-12T14:04:44.639Z,4.90
2022-12-12T14:08:55.563Z,4.80
2022-12-12T14:12:58.429Z,4.60
2022-12-12T14:17:03.040Z,4.40
2022-12-12T14:21:07.816Z,4.30
2022-12-12T14:25:18.925Z,4.20
2022-12-12T14:29:24.023Z,4.10
2022-12-12T14:33:41.740Z,4.00
2022-12-12T14:37:52.764Z,3.80
2022-12-12T14:41:56.813Z,3.70
2022-12-12T14:46:00.973Z,3.60
2022-12-12T14:50:11.127Z,3.50
2022-12-12T14:54:17.665Z,3.40
2022-12-12T14:58:22.574Z,3.30
2022-12-12T15:02:30.590Z,3.20
2022-12-12T15:06:34.757Z,3.10
2022-12-12T15:10:40.571Z,2.90
2022-12-12T15:14:52.766Z,2.80
2022-12-12T15:18:56.464Z,2.70
2022-12-12T15:23:00.559Z,2.60
2022-12-12T15:27:06.015Z,2.50
2022-12-12T15:31:12.109Z,2.40
2022-12-12T15:35:19.305Z,2.20
2022-12-12T15:39:22.209Z,2.10
2022-12-12T15:43:27.886Z,2.00
2022-12-12T15:47:30.786Z,1.90
2022-12-12T15:51:33.672Z,1.80
2022-12-12T15:55:37.031Z,1.70
2022-12-12T15:59:41.333Z,1.60
2022-12-12T16:03:53.851Z,1.40
2022-12-12T16:08:31.500Z,1.30
2022-12-12T16:12:53.346Z,1.20
2022-12-12T16:16:59.329Z,1.10
2022-12-12T16:21:02.208Z,1.00
2022-12-12T16:25:12.579Z,0.90
2022-12-12T16:29:15.431Z,0.80
2022-12-12T16:33:23.927Z,0.70
2022-12-12T16:37:26.802Z,0.60
2022-12-12T16:41:29.688Z,0.60
2022-12-12T16:45:32.664Z,0.50
2022-12-12T16:57:44.522Z,0.40
2022-12-12T17:01:47.473Z,0.20
2022-12-12T17:05:50.801Z,0.20
2022-12-12T17:09:53.699Z,0.10
2022-12-12T17:13:57.923Z,0.00
2022-12-12T17:18:00.981Z,0.00
2022-12-12T17:22:03.894Z,-0.10
2022-12-12T17:26:06.988Z,-0.20
2022-12-12T17:30:12.530Z,-0.30
2022-12-12T17:34:15.522Z,-0.40
2022-12-12T17:38:18.418Z,-0.50
2022-12-12T17:42:21.390Z,-0.50
2022-12-12T17:46:27.887Z,-0.60
2022-12-12T17:50:30.735Z,-0.70
2022-12-12T17:54:33.586Z,-0.70
2022-12-12T17:58:36.839Z,-0.80
2022-12-12T18:02:43.118Z,-0.80
2022-12-12T18:06:46.014Z,-0.90
2022-12-12T18:10:48.877Z,-1.00
2022-12-12T18:14:51.771Z,-1.10
2022-12-12T18:18:56.176Z,-1.10
2022-12-12T18:22:59.056Z,-1.10
2022-12-12T18:27:03.509Z,-1.20
2022-12-12T18:31:07.214Z,-1.30
2022-12-12T18:35:11.561Z,-1.30
2022-12-12T18:39:14.503Z,-1.40
2022-12-12T18:43:25.795Z,-1.50
2022-12-12T18:47:28.671Z,-1.50
2022-12-12T18:51:32.971Z,-1.60
2022-12-12T18:55:35.815Z,-1.70
2022-12-12T18:59:38.723Z,-1.70
2022-12-12T19:03:42.253Z,-1.80
2022-12-12T19:07:47.740Z,-1.90
2022-12-12T19:11:52.456Z,-1.90
2022-12-12T19:16:07.715Z,-2.00
2022-12-12T19:20:12.707Z,-2.00
2022-12-12T19:24:17.171Z,-2.10
2022-12-12T19:28:20.027Z,-2.10
2022-12-12T19:32:22.987Z,-2.20
2022-12-12T19:36:26.754Z,-2.20
2022-12-12T19:40:31.074Z,-2.30
2022-12-12T19:44:36.502Z,-2.40
2022-12-12T19:48:43.385Z,-2.50
2022-12-12T19:52:46.245Z,-2.50
2022-12-12T19:56:50.950Z,-2.60
2022-12-12T20:00:53.855Z,-2.60
2022-12-12T20:04:56.717Z,-2.60
2022-12-12T20:09:00.165Z,-2.70
2022-12-12T20:13:04.399Z,-2.80
2022-12-12T20:17:07.299Z,-2.80
2022-12-12T20:21:24.651Z,-2.80
2022-12-12T20:25:34.339Z,-2.90
2022-12-12T20:29:39.590Z,-2.90
2022-12-12T20:33:42.589Z,-3.00
2022-12-12T20:37:45.452Z,-3.10
2022-12-12T20:41:49.015Z,-3.10
2022-12-12T20:45:53.361Z,-3.20
2022-12-12T20:49:56.222Z,-3.20
2022-12-12T20:54:00.370Z,-3.20
2022-12-12T20:58:03.260Z,-3.30
2022-12-12T21:02:07.700Z,-3.30
2022-12-12T21:06:14.153Z,-3.40
2022-12-12T21:10:17.288Z,-3.40
2022-12-12T21:14:20.218Z,-3.50
2022-12-12T21:18:24.547Z,-3.50
2022-12-12T21:22:27.384Z,-3.60
2022-12-12T21:26:31.372Z,-3.50
2022-12-12T21:30:34.222Z,-3.60
2022-12-12T21:34:40.212Z,-3.60
2022-12-12T21:38:43.276Z,-3.60
2022-12-12T21:42:46.149Z,-3.60
2022-12-12T21:46:49.069Z,-3.70
2022-12-12T21:50:55.298Z,-3.70
2022-12-12T21:54:58.138Z,-3.70
2022-12-12T21:59:01.091Z,-3.80
2022-12-12T22:03:03.997Z,-3.80
2022-12-12T22:07:11.889Z,-3.80
2022-12-12T22:11:15.426Z,-3.90
2022-12-12T22:15:38.329Z,-3.90
2022-12-12T22:19:41.976Z,-3.90
2022-12-12T22:23:46.859Z,-4.00
2022-12-12T22:27:50.087Z,-4.00
2022-12-12T22:31:53.237Z,-4.10
2022-12-12T22:36:02.627Z,-4.10
2022-12-12T22:40:07.768Z,-4.10
2022-12-12T22:44:14.641Z,-4.10
2022-12-12T22:48:17.693Z,-4.10
2022-12-12T22:52:20.581Z,-4.10
2022-12-12T22:56:25.090Z,-4.10
2022-12-12T23:00:28.187Z,-4.20
2022-12-12T23:04:31.243Z,-4.20
2022-12-12T23:08:34.733Z,-4.20
2022-12-12T23:12:39.919Z,-4.30
2022-12-12T23:16:43.526Z,-4.30
2022-12-12T23:20:46.841Z,-4.40
2022-12-12T23:24:49.722Z,-4.40
2022-12-12T23:28:53.955Z,-4.50
2022-12-12T23:32:57.858Z,-4.50
2022-12-12T23:37:00.715Z,-4.50
2022-12-12T23:41:04.262Z,-4.50
2022-12-12T23:45:10.105Z,-4.60
2022-12-12T23:49:15.223Z,-4.60
2022-12-12T23:53:18.073Z,-4.60
2022-12-12T23:57:20.958Z,-4.70
